Terminal Aerodrome Forecast
Issued by NWS

Home | Current Version | Previous Version | Text Only | Print | Product List | Glossary On
Versions: 1 2 3 4 5 6 7 8 9 10 11 12 13 14 15 16
000
FTAK31 PANC 221136
TAFACD
TAF
PACD 221136Z 2212/2312 17010KT P6SM SCT040 BKN250
     FM221500 16016G25KT P6SM SCT025 BKN035
     FM221800 17030G40KT 4SM -RA BR OVC015
     FM230000 27025G36KT P6SM -SHRA BKN035
     FM230900 29040G55KT 5SM -SHRASN BR BKN020 OVC035=

USA.gov is the U.S. government's official web portal to all federal, state and local government web resources and services.